Time;durP1;ratioP1;P1;durP2;ratioP2;P2;SDS_P1;SDS_P2;PMS_P1;PMS_P2;Temp;Humidity;BMP_temperature;BMP_pressure;BME280_temperature;BME280_humidity;BME280_pressure;Samples;Min_cycle;Max_cycle;Signal;HPM_P1;HPM_P2
2024/02/13 08:08:14;;;;;;;4.38;2.25;;;;;;;;;;13054594;22;20200;-84
2024/02/13 08:13:21;;;;;;;5.07;2.50;;;;;;;;;;13066843;22;20007;-85
2024/02/13 08:18:23;;;;;;;5.18;3.28;;;;;;;;;;13062900;22;20054;-84
2024/02/13 08:23:29;;;;;;;6.38;2.92;;;;;;;;;;13065526;22;20011;-82
2024/02/13 08:29:05;;;;;;;5.03;2.95;;;;;;;;;;13058953;22;20086;-81
2024/02/13 08:34:41;;;;;;;7.55;3.88;;;;;;;;;;13073290;22;19995;-82
2024/02/13 08:57:51;;;;;;;5.85;2.65;;;;;;;;;;12700147;23;20006;-83
2024/02/13 09:03:18;;;;;;;3.63;2.17;;;;;;;;;;12818292;23;20009;-82
2024/02/13 09:08:37;;;;;;;4.60;2.00;;;;;;;;;;12758059;23;20068;-83
2024/02/13 09:14:20;;;;;;;4.32;2.10;;;;;;;;;;12959404;22;20015;-81
2024/02/13 09:25:29;;;;;;;6.88;3.22;;;;;;;;;;12823984;23;20072;-84
2024/02/13 09:31:15;;;;;;;4.28;2.38;;;;;;;;;;12828269;23;20019;-82
2024/02/13 09:48:17;;;;;;;4.22;2.05;;;;;;;;;;12723691;23;20007;-82
2024/02/13 10:05:16;;;;;;;3.83;2.20;;;;;;;;;;12901242;23;20004;-84
2024/02/13 10:16:02;;;;;;;4.30;1.88;;;;;;;;;;12976512;22;19999;-82
2024/02/13 10:21:27;;;;;;;5.65;2.40;;;;;;;;;;12877857;23;20004;-82
2024/02/13 10:26:29;;;;;;;4.32;2.20;;;;;;;;;;12854490;23;20012;-82
2024/02/13 10:31:50;;;;;;;5.13;2.08;;;;;;;;;;12853048;23;20090;-80
2024/02/13 10:36:58;;;;;;;3.25;1.73;;;;;;;;;;12858805;23;20008;-81
2024/02/13 10:42:02;;;;;;;5.07;2.58;;;;;;;;;;13029162;22;20011;-81
2024/02/13 10:47:28;;;;;;;3.38;1.88;;;;;;;;;;13049418;22;20009;-81
2024/02/13 10:52:50;;;;;;;4.18;2.20;;;;;;;;;;13071386;22;20041;-81
2024/02/13 11:09:25;;;;;;;3.50;1.52;;;;;;;;;;13075200;22;20066;-82
2024/02/13 11:20:22;;;;;;;4.88;1.92;;;;;;;;;;13072037;22;20030;-82
2024/02/13 11:42:39;;;;;;;3.90;1.73;;;;;;;;;;12980714;22;20003;-81
2024/02/13 11:59:30;;;;;;;5.55;2.17;;;;;;;;;;13070184;22;20012;-82
2024/02/13 12:05:12;;;;;;;4.65;1.40;;;;;;;;;;13071941;22;20007;-82
2024/02/13 12:15:49;;;;;;;3.83;1.53;;;;;;;;;;13076533;22;20297;-82
2024/02/13 12:21:28;;;;;;;9.85;4.85;;;;;;;;;;13048281;22;20235;-82
2024/02/13 12:27:15;;;;;;;3.72;1.85;;;;;;;;;;13098007;22;20002;-82
2024/02/13 12:32:38;;;;;;;3.65;1.80;;;;;;;;;;12889968;23;20020;-82
2024/02/13 13:06:19;;;;;;;4.75;1.63;;;;;;;;;;12872917;23;20017;-82
2024/02/13 13:34:54;;;;;;;2.63;1.30;;;;;;;;;;12989765;22;20011;-83
2024/02/13 13:46:32;;;;;;;3.17;1.20;;;;;;;;;;13064815;22;20011;-81
2024/02/13 14:13:24;;;;;;;4.03;1.77;;;;;;;;;;13063110;22;20329;-82
2024/02/13 14:24:42;;;;;;;3.38;1.13;;;;;;;;;;13063898;22;20003;-84
2024/02/13 14:30:26;;;;;;;1.83;0.90;;;;;;;;;;13037121;22;20038;-81
2024/02/13 14:42:07;;;;;;;2.85;1.10;;;;;;;;;;12741915;23;20013;-83
2024/02/13 14:47:13;;;;;;;3.45;1.20;;;;;;;;;;12717827;23;20020;-81
2024/02/13 14:53:02;;;;;;;3.92;1.30;;;;;;;;;;12733562;23;20024;-82
2024/02/13 14:58:04;;;;;;;1.70;0.90;;;;;;;;;;12718391;23;20080;-84
2024/02/13 15:03:11;;;;;;;3.58;1.20;;;;;;;;;;12764298;22;20011;-81
2024/02/13 15:08:39;;;;;;;3.00;0.90;;;;;;;;;;13069205;22;20003;-81
2024/02/13 15:25:08;;;;;;;2.90;1.10;;;;;;;;;;13073475;22;20035;-83
2024/02/13 15:30:27;;;;;;;2.88;1.02;;;;;;;;;;13064229;22;20014;-83
2024/02/13 15:35:51;;;;;;;3.63;1.55;;;;;;;;;;13056827;22;20410;-82
2024/02/13 15:47:05;;;;;;;6.10;3.03;;;;;;;;;;13070386;22;20007;-82
2024/02/13 15:52:06;;;;;;;4.47;1.38;;;;;;;;;;13043916;22;20050;-82
2024/02/13 15:57:34;;;;;;;2.13;0.93;;;;;;;;;;13071179;22;19997;-82
2024/02/13 16:03:00;;;;;;;3.95;1.17;;;;;;;;;;13066998;22;20007;-83
2024/02/13 16:13:40;;;;;;;3.35;1.20;;;;;;;;;;13073423;22;20015;-84
2024/02/13 16:18:47;;;;;;;4.47;1.30;;;;;;;;;;13073581;22;19999;-83
2024/02/13 16:29:31;;;;;;;4.00;1.40;;;;;;;;;;13066308;22;19906;-83
2024/02/13 16:34:36;;;;;;;3.25;1.50;;;;;;;;;;13016490;22;20008;-83
2024/02/13 16:40:17;;;;;;;1.90;0.77;;;;;;;;;;13036818;22;20344;-83
2024/02/13 16:46:20;;;;;;;3.28;1.30;;;;;;;;;;12819856;23;20430;-83
2024/02/13 16:51:40;;;;;;;1.80;0.80;;;;;;;;;;12935835;22;20477;-82
2024/02/13 16:57:00;;;;;;;1.83;1.23;;;;;;;;;;13048108;22;20007;-83
2024/02/13 17:02:52;;;;;;;2.53;1.50;;;;;;;;;;13070663;22;20057;-82
2024/02/13 17:08:27;;;;;;;3.08;1.40;;;;;;;;;;12881183;23;20124;-83
2024/02/13 17:19:13;;;;;;;1.85;1.20;;;;;;;;;;13069296;22;20045;-79
2024/02/13 17:24:14;;;;;;;4.88;2.28;;;;;;;;;;13068300;22;20014;-81
2024/02/13 17:29:46;;;;;;;4.35;2.30;;;;;;;;;;13059677;22;20065;-86
2024/02/13 17:35:27;;;;;;;3.85;1.88;;;;;;;;;;13066160;22;20007;-85
2024/02/13 17:41:27;;;;;;;3.33;1.60;;;;;;;;;;13001213;22;20041;-86
2024/02/13 17:53:03;;;;;;;3.22;2.00;;;;;;;;;;12869455;23;20013;-86
2024/02/13 17:58:08;;;;;;;3.55;1.92;;;;;;;;;;12842917;23;20013;-86
2024/02/13 18:03:29;;;;;;;2.65;1.55;;;;;;;;;;12844858;23;20036;-85
2024/02/13 18:08:32;;;;;;;3.75;1.60;;;;;;;;;;12878331;22;20008;-86
2024/02/13 18:13:44;;;;;;;3.65;1.92;;;;;;;;;;12977807;22;19988;-85
2024/02/13 18:19:27;;;;;;;2.97;1.70;;;;;;;;;;12944713;22;20170;-85
2024/02/13 18:48:05;;;;;;;8.32;6.40;;;;;;;;;;13064222;22;20514;-85
2024/02/13 18:54:04;;;;;;;2.38;1.23;;;;;;;;;;13043986;22;20476;-86
2024/02/13 19:16:20;;;;;;;2.40;1.40;;;;;;;;;;13043615;22;20016;-86
2024/02/13 19:21:22;;;;;;;3.10;1.38;;;;;;;;;;13064161;22;20004;-86
2024/02/13 19:26:23;;;;;;;2.63;1.40;;;;;;;;;;13004170;22;20008;-87
2024/02/13 19:31:24;;;;;;;3.40;1.30;;;;;;;;;;12977478;22;20385;-86
2024/02/13 19:36:29;;;;;;;2.92;1.58;;;;;;;;;;12972191;22;20030;-86
2024/02/13 19:41:30;;;;;;;3.08;1.40;;;;;;;;;;12966273;22;20003;-86
2024/02/13 19:46:32;;;;;;;2.55;1.58;;;;;;;;;;12970243;22;20008;-85
2024/02/13 19:51:33;;;;;;;2.92;1.70;;;;;;;;;;12996449;22;20008;-85
2024/02/13 19:56:34;;;;;;;4.75;2.40;;;;;;;;;;12971108;22;19999;-86
2024/02/13 20:01:36;;;;;;;2.55;1.50;;;;;;;;;;12997988;22;20006;-85
2024/02/13 20:06:37;;;;;;;3.03;2.08;;;;;;;;;;12971027;22;20038;-85
